createdAt,value
2023-02-13T00:01:01.194Z,16.23
2023-02-13T00:03:42.906Z,16.60
2023-02-13T00:06:10.042Z,16.15
2023-02-13T00:08:42.866Z,15.60
2023-02-13T00:11:09.842Z,15.98
2023-02-13T00:13:42.942Z,15.13
2023-02-13T00:16:16.992Z,16.30
2023-02-13T00:18:43.694Z,16.38
2023-02-13T00:21:20.877Z,16.77
2023-02-13T00:23:54.892Z,15.75
2023-02-13T00:26:31.059Z,16.10
2023-02-13T00:28:58.314Z,15.88
2023-02-13T00:34:12.711Z,15.32
2023-02-13T00:36:50.391Z,15.63
2023-02-13T00:39:16.986Z,15.43
2023-02-13T00:42:01.862Z,14.32
2023-02-13T00:44:37.522Z,15.27
2023-02-13T00:47:13.854Z,15.30
2023-02-13T00:50:01.878Z,16.15
2023-02-13T00:52:48.948Z,15.23
2023-02-13T00:55:24.927Z,15.30
2023-02-13T00:57:58.909Z,15.00
2023-02-13T01:00:25.769Z,14.10
2023-02-13T01:05:47.700Z,15.70
2023-02-13T01:08:28.110Z,14.83
2023-02-13T01:10:55.949Z,15.15
2023-02-13T01:13:29.807Z,15.52
2023-02-13T01:15:56.524Z,14.45
2023-02-13T01:18:23.346Z,15.35
2023-02-13T01:21:15.988Z,15.55
2023-02-13T01:23:48.599Z,15.73
2023-02-13T01:26:27.870Z,14.77
2023-02-13T01:28:55.278Z,15.57
2023-02-13T01:31:30.133Z,14.98
2023-02-13T01:34:01.001Z,13.70
2023-02-13T01:36:40.159Z,14.82
2023-02-13T01:39:06.842Z,15.68
2023-02-13T01:41:44.812Z,15.67
2023-02-13T01:44:48.996Z,17.20
2023-02-13T01:47:28.903Z,15.20
2023-02-13T01:50:55.261Z,16.10
2023-02-13T01:53:37.878Z,14.60
2023-02-13T01:56:40.929Z,15.23
2023-02-13T01:59:25.905Z,16.27
2023-02-13T02:01:54.051Z,15.18
2023-02-13T02:04:33.025Z,15.82
2023-02-13T02:07:08.646Z,15.75
2023-02-13T02:09:45.868Z,15.65
2023-02-13T02:12:38.581Z,15.20
2023-02-13T02:15:13.173Z,17.17
2023-02-13T02:17:50.496Z,16.05
2023-02-13T02:21:04.991Z,16.15
2023-02-13T02:23:50.501Z,14.80
2023-02-13T02:26:43.849Z,16.35
2023-02-13T02:29:44.955Z,16.40
2023-02-13T02:32:39.885Z,15.40
2023-02-13T02:35:32.855Z,16.30
2023-02-13T02:38:20.963Z,15.13
2023-02-13T02:41:04.903Z,16.63
2023-02-13T02:43:52.947Z,16.08
2023-02-13T02:46:38.854Z,15.25
2023-02-13T02:49:45.930Z,15.73
2023-02-13T02:52:25.244Z,15.45
2023-02-13T02:55:16.582Z,15.82
2023-02-13T02:58:14.952Z,14.80
2023-02-13T03:01:09.107Z,15.30
2023-02-13T03:04:06.942Z,16.55
2023-02-13T03:07:19.430Z,16.05
2023-02-13T03:10:19.916Z,15.85
2023-02-13T03:13:22.327Z,15.95
2023-02-13T03:19:17.275Z,16.20
2023-02-13T03:22:25.542Z,16.00
2023-02-13T03:25:00.841Z,15.73
2023-02-13T03:28:00.961Z,15.23
2023-02-13T03:30:39.793Z,15.47
2023-02-13T03:33:49.920Z,15.98
2023-02-13T03:37:31.019Z,15.52
2023-02-13T03:40:33.818Z,14.95
2023-02-13T03:43:23.905Z,14.70
2023-02-13T03:45:55.898Z,16.25
2023-02-13T03:49:14.001Z,16.00
2023-02-13T03:52:02.024Z,14.23
2023-02-13T03:55:04.139Z,14.57
2023-02-13T03:57:51.971Z,14.48
2023-02-13T04:00:27.921Z,16.65
2023-02-13T04:06:40.861Z,15.10
2023-02-13T04:09:13.761Z,16.75
2023-02-13T04:11:56.102Z,15.65
2023-02-13T04:14:28.421Z,15.30
2023-02-13T04:17:49.879Z,16.40
2023-02-13T04:20:33.146Z,14.75
2023-02-13T04:23:12.876Z,16.13
2023-02-13T04:25:42.027Z,14.20
2023-02-13T04:28:22.519Z,15.30
2023-02-13T04:30:50.205Z,17.17
2023-02-13T04:33:25.229Z,15.55
2023-02-13T04:35:58.965Z,16.17
2023-02-13T04:38:31.960Z,16.15
2023-02-13T04:41:06.346Z,16.08
2023-02-13T04:43:39.017Z,16.45
2023-02-13T04:46:12.000Z,14.48
2023-02-13T04:48:45.028Z,16.00
2023-02-13T04:51:18.313Z,15.90
2023-02-13T04:53:55.479Z,17.42
2023-02-13T04:56:22.089Z,16.20
2023-02-13T04:58:58.091Z,15.55
2023-02-13T05:01:28.615Z,15.27
2023-02-13T05:04:02.074Z,16.27
2023-02-13T05:06:55.139Z,16.75
2023-02-13T05:09:28.010Z,17.15
2023-02-13T05:11:54.819Z,16.23
2023-02-13T05:14:28.029Z,17.02
2023-02-13T05:16:54.859Z,16.65
2023-02-13T05:19:21.466Z,16.35
2023-02-13T05:22:13.044Z,16.00
2023-02-13T05:24:43.638Z,16.88
2023-02-13T05:27:19.983Z,15.63
2023-02-13T05:29:46.563Z,15.63
2023-02-13T05:32:32.145Z,17.30
2023-02-13T05:34:58.753Z,17.50
2023-02-13T05:37:31.939Z,17.48
2023-02-13T05:39:59.963Z,16.30
2023-02-13T05:42:41.977Z,16.48
2023-02-13T05:45:10.058Z,17.63
2023-02-13T05:47:44.098Z,17.70
2023-02-13T05:50:21.943Z,16.52
2023-02-13T05:53:03.377Z,16.92
2023-02-13T05:55:38.111Z,16.70
2023-02-13T05:58:17.332Z,16.75
2023-02-13T06:00:43.979Z,17.93
2023-02-13T06:03:17.135Z,17.23
2023-02-13T06:05:54.094Z,16.13
2023-02-13T06:08:21.883Z,16.70
2023-02-13T06:10:56.057Z,17.83
2023-02-13T06:13:25.774Z,17.67
2023-02-13T06:16:02.049Z,17.48
2023-02-13T06:18:31.018Z,16.95
2023-02-13T06:21:08.042Z,16.87
2023-02-13T06:23:35.186Z,17.73
2023-02-13T06:26:21.041Z,18.63
2023-02-13T06:28:50.698Z,17.42
2023-02-13T06:31:24.118Z,17.08
2023-02-13T06:33:50.958Z,17.08
2023-02-13T06:36:27.002Z,17.38
2023-02-13T06:38:53.702Z,17.88
2023-02-13T06:41:27.090Z,17.65
2023-02-13T06:43:53.791Z,16.65
2023-02-13T06:46:29.838Z,17.90
2023-02-13T06:48:56.527Z,17.75
2023-02-13T06:51:50.337Z,17.42
2023-02-13T06:54:33.915Z,17.77
2023-02-13T06:57:15.837Z,18.00
2023-02-13T06:59:49.991Z,15.65
2023-02-13T07:02:16.648Z,16.60
2023-02-13T07:04:52.060Z,17.42
2023-02-13T07:07:18.721Z,17.17
2023-02-13T07:09:52.031Z,17.47
2023-02-13T07:12:27.442Z,17.40
2023-02-13T07:15:02.784Z,17.23
2023-02-13T07:17:39.188Z,17.20
2023-02-13T07:20:13.237Z,17.15
2023-02-13T07:22:39.890Z,16.58
2023-02-13T07:25:14.127Z,16.55
2023-02-13T07:27:47.049Z,17.40
2023-02-13T07:30:18.921Z,17.80
2023-02-13T07:32:55.002Z,17.17
2023-02-13T07:35:22.017Z,17.17
2023-02-13T07:37:55.034Z,17.40
2023-02-13T07:40:24.753Z,18.08
2023-02-13T07:42:58.187Z,18.42
2023-02-13T07:45:25.251Z,18.58
2023-02-13T07:47:58.009Z,18.38
2023-02-13T07:50:34.236Z,17.42
2023-02-13T07:53:14.052Z,18.08
2023-02-13T07:55:53.579Z,18.58
2023-02-13T07:58:33.077Z,18.77
2023-02-13T08:01:08.034Z,17.98
2023-02-13T08:03:44.068Z,19.27
2023-02-13T08:06:13.752Z,19.42
2023-02-13T08:08:56.167Z,19.23
2023-02-13T08:11:57.795Z,18.30
2023-02-13T08:14:33.283Z,18.77
2023-02-13T08:17:01.641Z,19.63
2023-02-13T08:19:28.809Z,20.50
2023-02-13T08:22:02.311Z,21.42
2023-02-13T08:24:35.075Z,21.02
2023-02-13T08:27:01.922Z,20.75
2023-02-13T08:29:28.658Z,22.98
2023-02-13T08:32:02.189Z,21.55
2023-02-13T08:34:29.101Z,19.58
2023-02-13T08:37:02.087Z,22.48
2023-02-13T08:39:31.219Z,22.63
2023-02-13T08:42:09.751Z,23.42
2023-02-13T08:44:37.521Z,23.20
2023-02-13T08:47:40.095Z,22.20
2023-02-13T08:50:25.888Z,21.38
2023-02-13T08:53:06.098Z,21.98
2023-02-13T08:55:32.848Z,21.92
2023-02-13T08:58:12.117Z,22.40
2023-02-13T09:00:39.108Z,22.90
2023-02-13T09:03:23.034Z,22.35
2023-02-13T09:05:49.869Z,22.85
2023-02-13T09:08:23.102Z,23.77
2023-02-13T09:11:00.866Z,22.90
2023-02-13T09:13:54.020Z,23.20
2023-02-13T09:16:41.705Z,23.25
2023-02-13T09:19:15.056Z,22.50
2023-02-13T09:21:47.872Z,23.25
2023-02-13T09:24:30.222Z,24.40
2023-02-13T09:27:18.241Z,22.65
2023-02-13T09:29:45.223Z,24.40
2023-02-13T09:32:21.074Z,24.63
2023-02-13T09:35:18.244Z,22.98
2023-02-13T09:38:00.236Z,23.33
2023-02-13T09:40:35.673Z,21.52
2023-02-13T09:46:21.121Z,23.90
2023-02-13T09:48:57.270Z,22.50
2023-02-13T09:51:54.330Z,23.25
2023-02-13T09:54:32.114Z,22.90
2023-02-13T09:57:03.183Z,22.08
2023-02-13T09:59:55.073Z,23.45
2023-02-13T10:05:59.670Z,23.55
2023-02-13T10:08:47.133Z,20.85
2023-02-13T10:11:53.536Z,20.63
2023-02-13T10:15:01.094Z,20.88
2023-02-13T10:17:52.343Z,20.38
2023-02-13T10:20:50.083Z,21.65
2023-02-13T10:23:32.981Z,22.33
2023-02-13T10:26:27.173Z,20.60
2023-02-13T10:29:30.153Z,21.55
2023-02-13T10:32:07.239Z,23.05
2023-02-13T10:34:47.575Z,22.88
2023-02-13T10:37:29.859Z,22.38
2023-02-13T10:39:56.982Z,22.73
2023-02-13T10:42:47.274Z,22.63
2023-02-13T10:45:39.743Z,22.83
2023-02-13T10:48:26.232Z,24.38
2023-02-13T10:51:13.150Z,23.77
2023-02-13T10:53:59.199Z,23.77
2023-02-13T10:56:54.232Z,25.40
2023-02-13T10:59:38.158Z,25.20
2023-02-13T11:05:40.013Z,24.52
2023-02-13T11:08:28.289Z,25.42
2023-02-13T11:10:58.399Z,25.35
2023-02-13T11:13:37.114Z,27.20
2023-02-13T11:16:03.944Z,24.98
2023-02-13T11:18:43.254Z,24.38
2023-02-13T11:21:23.702Z,22.75
2023-02-13T11:23:59.073Z,24.13
2023-02-13T11:26:29.430Z,25.30
2023-02-13T11:29:13.274Z,24.98
2023-02-13T11:31:46.437Z,25.02
2023-02-13T11:34:29.233Z,24.17
2023-02-13T11:37:29.566Z,23.55
2023-02-13T11:40:06.137Z,24.42
2023-02-13T11:42:37.901Z,25.20
2023-02-13T11:45:28.815Z,24.65
2023-02-13T11:48:05.264Z,25.08
2023-02-13T11:50:47.221Z,26.15
2023-02-13T11:53:40.942Z,25.08
2023-02-13T11:56:30.414Z,26.13
2023-02-13T11:59:13.140Z,26.52
2023-02-13T12:01:46.186Z,25.55
2023-02-13T12:04:49.197Z,25.25
2023-02-13T12:07:32.460Z,25.33
2023-02-13T12:10:35.168Z,25.23
2023-02-13T12:13:21.627Z,25.55
2023-02-13T12:16:13.841Z,24.50
2023-02-13T12:18:45.196Z,24.55
2023-02-13T12:21:59.347Z,23.35
2023-02-13T12:25:20.524Z,21.40
2023-02-13T12:28:07.603Z,19.70
2023-02-13T12:31:07.275Z,19.25
2023-02-13T12:34:33.229Z,19.10
2023-02-13T12:37:56.718Z,18.45
2023-02-13T12:40:49.158Z,17.63
2023-02-13T12:43:25.307Z,16.20
2023-02-13T12:46:26.554Z,16.70
2023-02-13T12:49:24.468Z,15.85
2023-02-13T12:52:12.159Z,15.55
2023-02-13T12:54:54.366Z,16.42
2023-02-13T12:57:27.242Z,15.07
2023-02-13T13:00:18.448Z,14.82
2023-02-13T13:03:30.286Z,14.68
2023-02-13T13:06:19.901Z,13.95
2023-02-13T13:09:12.461Z,15.45
2023-02-13T13:12:22.508Z,14.60
2023-02-13T13:15:19.464Z,13.85
2023-02-13T13:18:02.009Z,15.15
2023-02-13T13:20:50.409Z,14.38
2023-02-13T13:23:56.241Z,14.35
2023-02-13T13:26:50.195Z,14.07
2023-02-13T13:29:25.282Z,15.27
2023-02-13T13:32:14.972Z,14.00
2023-02-13T13:34:41.817Z,14.73
2023-02-13T13:37:35.147Z,13.77
2023-02-13T13:40:32.372Z,14.25
2023-02-13T13:43:13.171Z,14.23
2023-02-13T13:46:15.340Z,14.40
2023-02-13T13:48:55.749Z,14.13
2023-02-13T13:51:29.313Z,13.25
2023-02-13T13:54:06.490Z,13.52
2023-02-13T13:57:14.389Z,13.50
2023-02-13T13:59:50.317Z,12.85
2023-02-13T14:02:45.170Z,13.98
2023-02-13T14:05:30.342Z,13.35
2023-02-13T14:08:03.614Z,13.43
2023-02-13T14:10:37.593Z,13.38
2023-02-13T14:13:28.847Z,13.48
2023-02-13T14:16:02.294Z,12.57
2023-02-13T14:18:30.721Z,12.98
2023-02-13T14:21:11.242Z,14.18
2023-02-13T14:23:50.410Z,13.20
2023-02-13T14:26:45.757Z,13.60
2023-02-13T14:29:23.429Z,13.70
2023-02-13T14:32:07.379Z,13.77
2023-02-13T14:34:39.746Z,13.73
2023-02-13T14:37:25.278Z,14.35
2023-02-13T14:40:21.665Z,14.10
2023-02-13T14:43:00.212Z,14.80
2023-02-13T14:45:40.246Z,14.30
2023-02-13T14:48:20.387Z,14.60
2023-02-13T14:50:53.889Z,14.40
2023-02-13T14:53:46.878Z,15.52
2023-02-13T14:56:52.102Z,15.30
2023-02-13T14:59:31.285Z,15.02
2023-02-13T15:02:09.645Z,14.80
2023-02-13T15:05:00.206Z,15.93
2023-02-13T15:07:52.560Z,15.20
2023-02-13T15:10:49.864Z,16.00
2023-02-13T15:13:32.382Z,16.75
2023-02-13T15:16:05.465Z,18.17
2023-02-13T15:18:47.359Z,17.45
2023-02-13T15:21:42.253Z,17.88
2023-02-13T15:24:16.060Z,18.38
2023-02-13T15:26:50.303Z,17.30
2023-02-13T15:29:29.324Z,18.27
2023-02-13T15:32:26.237Z,17.92
2023-02-13T15:34:52.824Z,17.08
2023-02-13T15:37:31.287Z,17.77
2023-02-13T15:40:19.837Z,17.23
2023-02-13T15:42:53.244Z,17.05
2023-02-13T15:45:22.063Z,16.63
2023-02-13T15:47:56.476Z,17.08
2023-02-13T15:50:33.365Z,17.98
2023-02-13T15:53:16.427Z,16.50
2023-02-13T15:55:58.079Z,16.65
2023-02-13T15:58:37.531Z,16.15
2023-02-13T16:01:07.980Z,16.38
2023-02-13T16:03:57.724Z,16.88
2023-02-13T16:06:24.852Z,15.85
2023-02-13T16:09:06.254Z,16.88
2023-02-13T16:14:28.428Z,18.38
2023-02-13T16:17:05.066Z,17.02
2023-02-13T16:19:58.531Z,16.20
2023-02-13T16:22:38.824Z,16.58
2023-02-13T16:25:36.805Z,16.15
2023-02-13T16:28:19.938Z,16.20
2023-02-13T16:31:15.386Z,15.85
2023-02-13T16:33:43.087Z,15.68
2023-02-13T16:36:19.443Z,16.55
2023-02-13T16:38:48.731Z,17.17
2023-02-13T16:41:28.422Z,16.58
2023-02-13T16:44:05.040Z,17.52
2023-02-13T16:47:08.111Z,16.42
2023-02-13T16:49:57.325Z,16.65
2023-02-13T16:52:33.310Z,17.13
2023-02-13T16:55:14.443Z,17.42
2023-02-13T16:57:48.368Z,16.58
2023-02-13T17:00:22.279Z,17.15
2023-02-13T17:02:57.392Z,18.35
2023-02-13T17:05:47.618Z,19.25
2023-02-13T17:08:14.418Z,17.63
2023-02-13T17:10:59.493Z,17.23
2023-02-13T17:13:27.155Z,17.00
2023-02-13T17:16:03.495Z,16.90
2023-02-13T17:18:36.344Z,16.73
2023-02-13T17:21:12.812Z,16.60
2023-02-13T17:23:47.439Z,16.80
2023-02-13T17:26:24.533Z,15.95
2023-02-13T17:28:57.359Z,16.63
2023-02-13T17:31:29.894Z,16.45
2023-02-13T17:34:03.325Z,16.08
2023-02-13T17:36:37.457Z,17.40
2023-02-13T17:39:04.241Z,16.98
2023-02-13T17:41:46.289Z,17.95
2023-02-13T17:44:20.340Z,17.33
2023-02-13T17:46:53.327Z,17.80
2023-02-13T17:49:28.674Z,18.40
2023-02-13T17:52:04.389Z,20.85
2023-02-13T17:54:37.748Z,19.30
2023-02-13T17:57:12.307Z,20.92
2023-02-13T17:59:39.055Z,20.25
2023-02-13T18:02:26.475Z,19.58
2023-02-13T18:04:53.509Z,21.73
2023-02-13T18:07:30.285Z,21.45
2023-02-13T18:09:57.024Z,21.38
2023-02-13T18:12:31.332Z,21.33
2023-02-13T18:14:57.964Z,20.33
2023-02-13T18:17:31.330Z,20.17
2023-02-13T18:20:01.320Z,19.15
2023-02-13T18:22:35.381Z,18.85
2023-02-13T18:25:15.542Z,18.48
2023-02-13T18:27:49.342Z,17.92
2023-02-13T18:30:27.730Z,18.60
2023-02-13T18:33:02.452Z,18.33
2023-02-13T18:35:29.446Z,18.63
2023-02-13T18:38:05.403Z,18.83
2023-02-13T18:40:41.326Z,19.23
2023-02-13T18:43:07.981Z,19.60
2023-02-13T18:45:48.520Z,19.93
2023-02-13T18:48:22.770Z,21.30
2023-02-13T18:51:07.456Z,21.27
2023-02-13T18:53:40.729Z,20.80
2023-02-13T18:56:21.389Z,20.23
2023-02-13T18:58:54.374Z,20.07
2023-02-13T19:01:32.553Z,19.40
2023-02-13T19:04:07.758Z,19.57
2023-02-13T19:06:41.442Z,18.47
2023-02-13T19:09:09.010Z,21.27
2023-02-13T19:11:50.863Z,19.63
2023-02-13T19:14:26.896Z,20.03
2023-02-13T19:17:00.499Z,20.57
2023-02-13T19:19:37.609Z,18.90
2023-02-13T19:22:10.424Z,19.57
2023-02-13T19:25:02.681Z,18.87
2023-02-13T19:27:42.458Z,16.57
2023-02-13T19:30:20.820Z,17.43
2023-02-13T19:32:47.714Z,17.53
2023-02-13T19:35:24.436Z,17.30
2023-02-13T19:37:51.745Z,16.97
2023-02-13T19:40:28.518Z,15.80
2023-02-13T19:42:55.259Z,17.63
2023-02-13T19:45:31.470Z,16.93
2023-02-13T19:48:05.416Z,16.83
2023-02-13T19:50:38.426Z,16.17
2023-02-13T19:53:12.477Z,17.40
2023-02-13T19:55:55.408Z,17.90
2023-02-13T19:58:28.488Z,17.33
2023-02-13T20:01:01.435Z,16.53
2023-02-13T20:03:35.612Z,17.47
2023-02-13T20:06:21.440Z,16.93
2023-02-13T20:08:55.532Z,16.10
2023-02-13T20:11:34.398Z,16.27
2023-02-13T20:14:07.473Z,15.57
2023-02-13T20:16:54.651Z,16.10
2023-02-13T20:19:28.473Z,15.13
2023-02-13T20:22:04.321Z,14.70
2023-02-13T20:24:39.460Z,16.80
2023-02-13T20:27:06.150Z,16.37
2023-02-13T20:29:48.372Z,17.70
2023-02-13T20:32:15.239Z,16.10
2023-02-13T20:34:59.361Z,17.17
2023-02-13T20:37:26.415Z,16.80
2023-02-13T20:40:00.442Z,16.20
2023-02-13T20:42:34.618Z,16.50
2023-02-13T20:45:08.504Z,15.57
2023-02-13T20:47:35.106Z,15.43
2023-02-13T20:50:01.773Z,14.53
2023-02-13T20:52:41.464Z,16.07
2023-02-13T20:55:21.346Z,15.70
2023-02-13T20:57:54.458Z,19.97
2023-02-13T21:00:21.473Z,22.27
2023-02-13T21:05:23.599Z,21.93
2023-02-13T21:07:56.621Z,19.60
2023-02-13T21:10:25.662Z,20.87
2023-02-13T21:12:52.297Z,17.03
2023-02-13T21:15:26.024Z,16.93
2023-02-13T21:17:59.437Z,15.80
2023-02-13T21:20:37.338Z,15.80
2023-02-13T21:23:05.541Z,16.07
2023-02-13T21:25:52.614Z,16.20
2023-02-13T21:28:32.115Z,15.90
2023-02-13T21:31:16.524Z,15.77
2023-02-13T21:33:51.493Z,15.27
2023-02-13T21:36:51.438Z,15.70
2023-02-13T21:39:27.439Z,15.83
2023-02-13T21:42:02.941Z,16.10
2023-02-13T21:44:36.430Z,16.40
2023-02-13T21:47:12.540Z,15.80
2023-02-13T21:52:33.423Z,15.73
2023-02-13T21:55:13.656Z,16.10
2023-02-13T21:57:47.528Z,15.83
2023-02-13T22:00:22.486Z,16.07
2023-02-13T22:03:04.416Z,15.47
2023-02-13T22:05:37.476Z,16.03
2023-02-13T22:08:13.245Z,15.63
2023-02-13T22:10:55.298Z,15.33
2023-02-13T22:13:29.513Z,15.47
2023-02-13T22:16:37.641Z,15.83
2023-02-13T22:19:05.607Z,14.97
2023-02-13T22:21:39.631Z,15.23
2023-02-13T22:24:13.564Z,14.87
2023-02-13T22:26:45.335Z,15.23
2023-02-13T22:29:22.519Z,15.77
2023-02-13T22:31:49.466Z,14.17
2023-02-13T22:34:22.489Z,14.47
2023-02-13T22:36:49.225Z,14.53
2023-02-13T22:39:22.489Z,14.13
2023-02-13T22:41:57.905Z,19.27
2023-02-13T22:44:31.583Z,23.10
2023-02-13T22:46:58.345Z,16.90
2023-02-13T22:49:41.618Z,14.33
2023-02-13T22:52:15.459Z,14.77
2023-02-13T22:54:57.053Z,14.83
2023-02-13T22:57:37.983Z,13.33
2023-02-13T23:00:16.592Z,14.63
2023-02-13T23:02:46.130Z,14.37
2023-02-13T23:05:30.494Z,14.47
2023-02-13T23:07:57.227Z,13.63
2023-02-13T23:10:32.628Z,14.13
2023-02-13T23:12:59.462Z,13.90
2023-02-13T23:15:42.669Z,14.57
2023-02-13T23:18:14.426Z,14.07
2023-02-13T23:20:51.666Z,15.00
2023-02-13T23:23:18.531Z,14.07
2023-02-13T23:25:58.636Z,13.73
2023-02-13T23:28:35.381Z,13.97
2023-02-13T23:31:22.412Z,14.10
2023-02-13T23:33:55.437Z,13.20
2023-02-13T23:36:22.188Z,13.57
2023-02-13T23:38:55.625Z,14.40
2023-02-13T23:41:28.488Z,13.47
2023-02-13T23:43:55.301Z,12.63
2023-02-13T23:46:29.672Z,13.40
2023-02-13T23:51:51.612Z,14.07
2023-02-13T23:54:24.933Z,13.73
2023-02-13T23:59:35.526Z,13.70
